Terminal Aerodrome Forecast
Issued by NWS Cleveland, OH

Home | Current Version | Previous Version | Graphics & Text | Print | Product List | Glossary Off
Versions: 1 2 3 4 5 6 7 8 9 10 11 12 13 14 15 16 17 18 19

000
FTUS41 KCLE 212200 AAB
TAFCAK
TAF AMD
KCAK 212246Z 2123/2218 34010KT 4SM -RA BR BKN006 OVC015
      TEMPO 2123/2203 2SM -RA
     FM220600 35010KT P6SM OVC008
     FM221400 36010KT P6SM OVC015=

USA.gov is the U.S. government's official web portal to all federal, state and local government web resources and services.